sensor_id;sensor_type;location;lat;lon;timestamp;pressure;altitude;pressure_sealevel;temperature
12918;BMP180;6526;54.312;13.092;2022-11-15T00:01:53;101840.00;;;9.90
12918;BMP180;6526;54.312;13.092;2022-11-15T00:04:19;101845.00;;;10.10
12918;BMP180;6526;54.312;13.092;2022-11-15T00:06:45;101834.00;;;10.00
12918;BMP180;6526;54.312;13.092;2022-11-15T00:09:11;101845.00;;;10.00
12918;BMP180;6526;54.312;13.092;2022-11-15T00:11:37;101842.00;;;10.10
12918;BMP180;6526;54.312;13.092;2022-11-15T00:14:03;101849.00;;;10.10
12918;BMP180;6526;54.312;13.092;2022-11-15T00:16:29;101840.00;;;10.10
12918;BMP180;6526;54.312;13.092;2022-11-15T00:18:55;101839.00;;;10.10
12918;BMP180;6526;54.312;13.092;2022-11-15T00:21:23;101834.00;;;10.00
12918;BMP180;6526;54.312;13.092;2022-11-15T00:23:49;101836.00;;;10.20
12918;BMP180;6526;54.312;13.092;2022-11-15T00:26:15;101829.00;;;10.00
12918;BMP180;6526;54.312;13.092;2022-11-15T00:28:42;101833.00;;;9.90
12918;BMP180;6526;54.312;13.092;2022-11-15T00:31:13;101825.00;;;9.90
12918;BMP180;6526;54.312;13.092;2022-11-15T00:33:39;101821.00;;;10.00
12918;BMP180;6526;54.312;13.092;2022-11-15T00:36:09;101824.00;;;10.00
12918;BMP180;6526;54.312;13.092;2022-11-15T00:38:37;101821.00;;;9.90
12918;BMP180;6526;54.312;13.092;2022-11-15T00:41:04;101828.00;;;10.00
12918;BMP180;6526;54.312;13.092;2022-11-15T00:43:30;101825.00;;;10.10
12918;BMP180;6526;54.312;13.092;2022-11-15T00:45:56;101826.00;;;10.30
12918;BMP180;6526;54.312;13.092;2022-11-15T00:48:23;101819.00;;;10.30
12918;BMP180;6526;54.312;13.092;2022-11-15T00:50:49;101830.00;;;10.50
12918;BMP180;6526;54.312;13.092;2022-11-15T00:53:16;101823.00;;;10.50
12918;BMP180;6526;54.312;13.092;2022-11-15T00:55:43;101827.00;;;10.30
12918;BMP180;6526;54.312;13.092;2022-11-15T00:58:09;101822.00;;;10.30
12918;BMP180;6526;54.312;13.092;2022-11-15T01:00:35;101818.00;;;10.20
12918;BMP180;6526;54.312;13.092;2022-11-15T01:03:01;101816.00;;;10.20
12918;BMP180;6526;54.312;13.092;2022-11-15T01:05:28;101810.00;;;10.30
12918;BMP180;6526;54.312;13.092;2022-11-15T01:07:55;101797.00;;;10.20
12918;BMP180;6526;54.312;13.092;2022-11-15T01:10:22;101791.00;;;10.10
12918;BMP180;6526;54.312;13.092;2022-11-15T01:12:48;101790.00;;;10.20
12918;BMP180;6526;54.312;13.092;2022-11-15T01:15:14;101797.00;;;10.20
12918;BMP180;6526;54.312;13.092;2022-11-15T01:17:40;101779.00;;;10.40
12918;BMP180;6526;54.312;13.092;2022-11-15T01:20:07;101772.00;;;10.20
12918;BMP180;6526;54.312;13.092;2022-11-15T01:22:33;101771.00;;;10.20
12918;BMP180;6526;54.312;13.092;2022-11-15T01:24:59;101764.00;;;10.20
12918;BMP180;6526;54.312;13.092;2022-11-15T01:27:25;101761.00;;;10.20
12918;BMP180;6526;54.312;13.092;2022-11-15T01:29:51;101753.00;;;10.30
12918;BMP180;6526;54.312;13.092;2022-11-15T01:32:18;101747.00;;;10.40
12918;BMP180;6526;54.312;13.092;2022-11-15T01:34:44;101741.00;;;10.20
12918;BMP180;6526;54.312;13.092;2022-11-15T01:37:10;101738.00;;;10.10
12918;BMP180;6526;54.312;13.092;2022-11-15T01:39:36;101733.00;;;10.00
12918;BMP180;6526;54.312;13.092;2022-11-15T01:42:02;101729.00;;;9.90
12918;BMP180;6526;54.312;13.092;2022-11-15T01:44:46;101727.00;;;9.90
12918;BMP180;6526;54.312;13.092;2022-11-15T01:47:17;101729.00;;;9.80
12918;BMP180;6526;54.312;13.092;2022-11-15T01:50:06;101725.00;;;9.70
12918;BMP180;6526;54.312;13.092;2022-11-15T01:52:34;101739.00;;;9.80
12918;BMP180;6526;54.312;13.092;2022-11-15T01:55:23;101738.00;;;9.80
12918;BMP180;6526;54.312;13.092;2022-11-15T01:57:53;101723.00;;;9.70
12918;BMP180;6526;54.312;13.092;2022-11-15T02:00:20;101733.00;;;9.60
12918;BMP180;6526;54.312;13.092;2022-11-15T02:02:46;101712.00;;;9.70
12918;BMP180;6526;54.312;13.092;2022-11-15T02:05:12;101722.00;;;9.90
12918;BMP180;6526;54.312;13.092;2022-11-15T02:07:38;101711.00;;;9.90
12918;BMP180;6526;54.312;13.092;2022-11-15T02:10:10;101722.00;;;9.70
12918;BMP180;6526;54.312;13.092;2022-11-15T02:12:36;101733.00;;;9.80
12918;BMP180;6526;54.312;13.092;2022-11-15T02:15:04;101734.00;;;9.90
12918;BMP180;6526;54.312;13.092;2022-11-15T02:20:39;101709.00;;;9.70
12918;BMP180;6526;54.312;13.092;2022-11-15T02:23:47;101709.00;;;9.60
12918;BMP180;6526;54.312;13.092;2022-11-15T02:26:49;101711.00;;;9.60
12918;BMP180;6526;54.312;13.092;2022-11-15T02:32:42;101714.00;;;9.40
12918;BMP180;6526;54.312;13.092;2022-11-15T02:35:27;101706.00;;;9.40
12918;BMP180;6526;54.312;13.092;2022-11-15T02:37:58;101696.00;;;9.40
12918;BMP180;6526;54.312;13.092;2022-11-15T02:43:21;101706.00;;;9.60
12918;BMP180;6526;54.312;13.092;2022-11-15T02:49:11;101701.00;;;9.60
12918;BMP180;6526;54.312;13.092;2022-11-15T02:51:38;101710.00;;;9.50
12918;BMP180;6526;54.312;13.092;2022-11-15T02:54:05;101718.00;;;9.50
12918;BMP180;6526;54.312;13.092;2022-11-15T02:56:31;101696.00;;;9.60
12918;BMP180;6526;54.312;13.092;2022-11-15T03:01:46;101695.00;;;9.50
12918;BMP180;6526;54.312;13.092;2022-11-15T03:06:59;101708.00;;;9.30
12918;BMP180;6526;54.312;13.092;2022-11-15T03:12:07;101698.00;;;9.40
12918;BMP180;6526;54.312;13.092;2022-11-15T03:14:40;101698.00;;;9.50
12918;BMP180;6526;54.312;13.092;2022-11-15T03:17:16;101701.00;;;9.40
12918;BMP180;6526;54.312;13.092;2022-11-15T03:19:50;101697.00;;;9.20
12918;BMP180;6526;54.312;13.092;2022-11-15T03:22:20;101706.00;;;9.30
12918;BMP180;6526;54.312;13.092;2022-11-15T03:24:50;101696.00;;;9.20
12918;BMP180;6526;54.312;13.092;2022-11-15T03:27:22;101691.00;;;9.30
12918;BMP180;6526;54.312;13.092;2022-11-15T03:29:52;101693.00;;;9.30
12918;BMP180;6526;54.312;13.092;2022-11-15T03:32:25;101689.00;;;9.30
12918;BMP180;6526;54.312;13.092;2022-11-15T03:40:15;101684.00;;;9.60
12918;BMP180;6526;54.312;13.092;2022-11-15T03:45:25;101675.00;;;9.50
12918;BMP180;6526;54.312;13.092;2022-11-15T03:48:09;101682.00;;;9.30
12918;BMP180;6526;54.312;13.092;2022-11-15T03:50:36;101668.00;;;9.50
12918;BMP180;6526;54.312;13.092;2022-11-15T03:53:02;101681.00;;;9.40
12918;BMP180;6526;54.312;13.092;2022-11-15T03:55:29;101692.00;;;9.40
12918;BMP180;6526;54.312;13.092;2022-11-15T03:57:59;101668.00;;;9.40
12918;BMP180;6526;54.312;13.092;2022-11-15T04:00:27;101667.00;;;9.50
12918;BMP180;6526;54.312;13.092;2022-11-15T04:02:53;101676.00;;;9.30
12918;BMP180;6526;54.312;13.092;2022-11-15T04:05:19;101664.00;;;9.40
12918;BMP180;6526;54.312;13.092;2022-11-15T04:07:46;101663.00;;;9.80
12918;BMP180;6526;54.312;13.092;2022-11-15T04:10:12;101671.00;;;9.70
12918;BMP180;6526;54.312;13.092;2022-11-15T04:12:44;101659.00;;;9.70
12918;BMP180;6526;54.312;13.092;2022-11-15T04:15:14;101663.00;;;9.70
12918;BMP180;6526;54.312;13.092;2022-11-15T04:17:48;101665.00;;;9.50
12918;BMP180;6526;54.312;13.092;2022-11-15T04:20:18;101674.00;;;9.50
12918;BMP180;6526;54.312;13.092;2022-11-15T04:23:12;101682.00;;;9.50
12918;BMP180;6526;54.312;13.092;2022-11-15T04:26:00;101672.00;;;9.40
12918;BMP180;6526;54.312;13.092;2022-11-15T04:28:27;101666.00;;;9.40
12918;BMP180;6526;54.312;13.092;2022-11-15T04:30:53;101668.00;;;9.60
12918;BMP180;6526;54.312;13.092;2022-11-15T04:33:19;101666.00;;;9.60
12918;BMP180;6526;54.312;13.092;2022-11-15T04:35:45;101654.00;;;9.80
12918;BMP180;6526;54.312;13.092;2022-11-15T04:38:31;101656.00;;;10.00
12918;BMP180;6526;54.312;13.092;2022-11-15T04:40:57;101666.00;;;9.90
12918;BMP180;6526;54.312;13.092;2022-11-15T04:43:23;101677.00;;;9.50
12918;BMP180;6526;54.312;13.092;2022-11-15T04:45:49;101665.00;;;9.60
12918;BMP180;6526;54.312;13.092;2022-11-15T04:48:15;101663.00;;;9.60
12918;BMP180;6526;54.312;13.092;2022-11-15T04:50:41;101670.00;;;9.50
12918;BMP180;6526;54.312;13.092;2022-11-15T04:53:07;101668.00;;;9.60
12918;BMP180;6526;54.312;13.092;2022-11-15T04:55:33;101674.00;;;9.50
12918;BMP180;6526;54.312;13.092;2022-11-15T04:58:00;101669.00;;;9.70
12918;BMP180;6526;54.312;13.092;2022-11-15T05:00:28;101659.00;;;9.50
12918;BMP180;6526;54.312;13.092;2022-11-15T05:02:54;101657.00;;;9.30
12918;BMP180;6526;54.312;13.092;2022-11-15T05:05:39;101665.00;;;9.30
12918;BMP180;6526;54.312;13.092;2022-11-15T05:08:05;101668.00;;;9.30
12918;BMP180;6526;54.312;13.092;2022-11-15T05:10:31;101669.00;;;9.40
12918;BMP180;6526;54.312;13.092;2022-11-15T05:12:57;101656.00;;;9.50
12918;BMP180;6526;54.312;13.092;2022-11-15T05:15:23;101654.00;;;9.50
12918;BMP180;6526;54.312;13.092;2022-11-15T05:17:49;101652.00;;;9.40
12918;BMP180;6526;54.312;13.092;2022-11-15T05:20:15;101648.00;;;9.30
12918;BMP180;6526;54.312;13.092;2022-11-15T05:22:41;101652.00;;;9.30
12918;BMP180;6526;54.312;13.092;2022-11-15T05:25:08;101653.00;;;9.40
12918;BMP180;6526;54.312;13.092;2022-11-15T05:27:34;101647.00;;;9.50
12918;BMP180;6526;54.312;13.092;2022-11-15T05:30:00;101659.00;;;9.40
12918;BMP180;6526;54.312;13.092;2022-11-15T05:32:28;101659.00;;;9.40
12918;BMP180;6526;54.312;13.092;2022-11-15T05:34:55;101642.00;;;9.30
12918;BMP180;6526;54.312;13.092;2022-11-15T05:37:21;101646.00;;;9.30
12918;BMP180;6526;54.312;13.092;2022-11-15T05:39:47;101633.00;;;9.40
12918;BMP180;6526;54.312;13.092;2022-11-15T05:42:14;101638.00;;;9.50
12918;BMP180;6526;54.312;13.092;2022-11-15T05:44:45;101650.00;;;9.40
12918;BMP180;6526;54.312;13.092;2022-11-15T05:47:16;101650.00;;;9.30
12918;BMP180;6526;54.312;13.092;2022-11-15T05:49:44;101639.00;;;9.20
12918;BMP180;6526;54.312;13.092;2022-11-15T05:52:14;101642.00;;;9.30
12918;BMP180;6526;54.312;13.092;2022-11-15T05:54:41;101643.00;;;9.40
12918;BMP180;6526;54.312;13.092;2022-11-15T05:57:08;101660.00;;;9.50
12918;BMP180;6526;54.312;13.092;2022-11-15T05:59:35;101639.00;;;9.50
12918;BMP180;6526;54.312;13.092;2022-11-15T06:02:01;101637.00;;;9.50
12918;BMP180;6526;54.312;13.092;2022-11-15T06:04:27;101646.00;;;9.30
12918;BMP180;6526;54.312;13.092;2022-11-15T06:06:53;101635.00;;;9.30
12918;BMP180;6526;54.312;13.092;2022-11-15T06:09:19;101643.00;;;9.30
12918;BMP180;6526;54.312;13.092;2022-11-15T06:11:45;101651.00;;;9.50
12918;BMP180;6526;54.312;13.092;2022-11-15T06:14:11;101647.00;;;9.40
12918;BMP180;6526;54.312;13.092;2022-11-15T06:16:37;101645.00;;;9.50
12918;BMP180;6526;54.312;13.092;2022-11-15T06:19:03;101650.00;;;9.50
12918;BMP180;6526;54.312;13.092;2022-11-15T06:21:31;101647.00;;;9.40
12918;BMP180;6526;54.312;13.092;2022-11-15T06:23:57;101643.00;;;9.40
12918;BMP180;6526;54.312;13.092;2022-11-15T06:26:23;101645.00;;;9.30
12918;BMP180;6526;54.312;13.092;2022-11-15T06:28:49;101643.00;;;9.30
12918;BMP180;6526;54.312;13.092;2022-11-15T06:31:15;101656.00;;;9.50
12918;BMP180;6526;54.312;13.092;2022-11-15T06:33:41;101657.00;;;9.50
12918;BMP180;6526;54.312;13.092;2022-11-15T06:36:12;101662.00;;;9.50
12918;BMP180;6526;54.312;13.092;2022-11-15T06:38:39;101661.00;;;9.50
12918;BMP180;6526;54.312;13.092;2022-11-15T06:41:08;101663.00;;;9.30
12918;BMP180;6526;54.312;13.092;2022-11-15T06:43:35;101660.00;;;9.30
12918;BMP180;6526;54.312;13.092;2022-11-15T06:46:02;101671.00;;;9.60
12918;BMP180;6526;54.312;13.092;2022-11-15T06:48:30;101673.00;;;9.40
12918;BMP180;6526;54.312;13.092;2022-11-15T06:50:58;101683.00;;;9.40
12918;BMP180;6526;54.312;13.092;2022-11-15T06:53:25;101673.00;;;9.30
12918;BMP180;6526;54.312;13.092;2022-11-15T06:55:51;101690.00;;;9.30
12918;BMP180;6526;54.312;13.092;2022-11-15T06:58:17;101685.00;;;9.20
12918;BMP180;6526;54.312;13.092;2022-11-15T07:00:43;101684.00;;;9.40
12918;BMP180;6526;54.312;13.092;2022-11-15T07:03:10;101692.00;;;9.40
12918;BMP180;6526;54.312;13.092;2022-11-15T07:05:36;101691.00;;;9.30
12918;BMP180;6526;54.312;13.092;2022-11-15T07:08:03;101708.00;;;9.50
12918;BMP180;6526;54.312;13.092;2022-11-15T07:10:29;101695.00;;;9.30
12918;BMP180;6526;54.312;13.092;2022-11-15T07:12:56;101697.00;;;9.30
12918;BMP180;6526;54.312;13.092;2022-11-15T07:15:24;101703.00;;;9.30
12918;BMP180;6526;54.312;13.092;2022-11-15T07:17:51;101704.00;;;9.30
12918;BMP180;6526;54.312;13.092;2022-11-15T07:20:18;101700.00;;;9.30
12918;BMP180;6526;54.312;13.092;2022-11-15T07:22:44;101704.00;;;9.30
12918;BMP180;6526;54.312;13.092;2022-11-15T07:25:13;101700.00;;;9.30
12918;BMP180;6526;54.312;13.092;2022-11-15T07:27:39;101697.00;;;9.30
12918;BMP180;6526;54.312;13.092;2022-11-15T07:30:06;101708.00;;;9.40
12918;BMP180;6526;54.312;13.092;2022-11-15T07:32:32;101710.00;;;9.30
12918;BMP180;6526;54.312;13.092;2022-11-15T07:34:58;101718.00;;;9.30
12918;BMP180;6526;54.312;13.092;2022-11-15T07:37:24;101714.00;;;9.30
12918;BMP180;6526;54.312;13.092;2022-11-15T07:39:50;101718.00;;;9.20
12918;BMP180;6526;54.312;13.092;2022-11-15T07:42:16;101718.00;;;9.40
12918;BMP180;6526;54.312;13.092;2022-11-15T07:45:01;101716.00;;;9.50
12918;BMP180;6526;54.312;13.092;2022-11-15T07:47:29;101719.00;;;9.50
12918;BMP180;6526;54.312;13.092;2022-11-15T07:49:55;101723.00;;;9.30
12918;BMP180;6526;54.312;13.092;2022-11-15T07:52:21;101719.00;;;9.30
12918;BMP180;6526;54.312;13.092;2022-11-15T07:54:47;101722.00;;;9.20
12918;BMP180;6526;54.312;13.092;2022-11-15T07:57:13;101715.00;;;9.20
12918;BMP180;6526;54.312;13.092;2022-11-15T07:59:39;101723.00;;;9.40
12918;BMP180;6526;54.312;13.092;2022-11-15T08:02:05;101730.00;;;9.50
12918;BMP180;6526;54.312;13.092;2022-11-15T08:04:31;101729.00;;;9.70
12918;BMP180;6526;54.312;13.092;2022-11-15T08:06:57;101723.00;;;9.80
12918;BMP180;6526;54.312;13.092;2022-11-15T08:09:23;101734.00;;;9.80
12918;BMP180;6526;54.312;13.092;2022-11-15T08:11:49;101731.00;;;9.80
12918;BMP180;6526;54.312;13.092;2022-11-15T08:14:15;101730.00;;;9.80
12918;BMP180;6526;54.312;13.092;2022-11-15T08:16:41;101735.00;;;9.90
12918;BMP180;6526;54.312;13.092;2022-11-15T08:19:07;101732.00;;;9.80
12918;BMP180;6526;54.312;13.092;2022-11-15T08:21:33;101736.00;;;9.70
12918;BMP180;6526;54.312;13.092;2022-11-15T08:23:59;101717.00;;;9.80
12918;BMP180;6526;54.312;13.092;2022-11-15T08:26:25;101711.00;;;9.80
12918;BMP180;6526;54.312;13.092;2022-11-15T08:28:54;101699.00;;;9.70
12918;BMP180;6526;54.312;13.092;2022-11-15T08:31:20;101717.00;;;9.60
12918;BMP180;6526;54.312;13.092;2022-11-15T08:33:46;101702.00;;;9.50
12918;BMP180;6526;54.312;13.092;2022-11-15T08:36:14;101705.00;;;9.50
12918;BMP180;6526;54.312;13.092;2022-11-15T08:38:41;101706.00;;;9.70
12918;BMP180;6526;54.312;13.092;2022-11-15T08:41:12;101706.00;;;9.70
12918;BMP180;6526;54.312;13.092;2022-11-15T08:43:39;101698.00;;;9.70
12918;BMP180;6526;54.312;13.092;2022-11-15T08:46:05;101708.00;;;9.60
12918;BMP180;6526;54.312;13.092;2022-11-15T08:48:31;101708.00;;;9.50
12918;BMP180;6526;54.312;13.092;2022-11-15T08:50:57;101709.00;;;9.50
12918;BMP180;6526;54.312;13.092;2022-11-15T08:53:23;101704.00;;;9.50
12918;BMP180;6526;54.312;13.092;2022-11-15T08:55:49;101709.00;;;9.50
12918;BMP180;6526;54.312;13.092;2022-11-15T08:58:15;101714.00;;;9.60
12918;BMP180;6526;54.312;13.092;2022-11-15T09:00:41;101716.00;;;9.60
12918;BMP180;6526;54.312;13.092;2022-11-15T09:03:07;101708.00;;;9.60
12918;BMP180;6526;54.312;13.092;2022-11-15T09:05:36;101703.00;;;9.60
12918;BMP180;6526;54.312;13.092;2022-11-15T09:08:03;101710.00;;;9.70
12918;BMP180;6526;54.312;13.092;2022-11-15T09:10:29;101712.00;;;9.70
12918;BMP180;6526;54.312;13.092;2022-11-15T09:12:57;101726.00;;;9.70
12918;BMP180;6526;54.312;13.092;2022-11-15T09:15:23;101724.00;;;9.80
12918;BMP180;6526;54.312;13.092;2022-11-15T09:17:49;101726.00;;;9.80
12918;BMP180;6526;54.312;13.092;2022-11-15T09:20:15;101729.00;;;10.00
12918;BMP180;6526;54.312;13.092;2022-11-15T09:22:41;101730.00;;;9.80
12918;BMP180;6526;54.312;13.092;2022-11-15T09:25:08;101729.00;;;9.90
12918;BMP180;6526;54.312;13.092;2022-11-15T09:27:34;101716.00;;;10.10
12918;BMP180;6526;54.312;13.092;2022-11-15T09:30:00;101732.00;;;10.20
12918;BMP180;6526;54.312;13.092;2022-11-15T09:32:28;101724.00;;;10.20
12918;BMP180;6526;54.312;13.092;2022-11-15T09:34:56;101730.00;;;10.20
12918;BMP180;6526;54.312;13.092;2022-11-15T09:37:22;101732.00;;;10.30
12918;BMP180;6526;54.312;13.092;2022-11-15T09:39:48;101732.00;;;10.30
12918;BMP180;6526;54.312;13.092;2022-11-15T09:42:49;101740.00;;;10.20
12918;BMP180;6526;54.312;13.092;2022-11-15T09:45:27;101726.00;;;10.10
12918;BMP180;6526;54.312;13.092;2022-11-15T09:50:41;101713.00;;;10.30
12918;BMP180;6526;54.312;13.092;2022-11-15T09:53:14;101723.00;;;10.30
12918;BMP180;6526;54.312;13.092;2022-11-15T09:55:59;101724.00;;;10.10
12918;BMP180;6526;54.312;13.092;2022-11-15T09:58:33;101703.00;;;9.90
12918;BMP180;6526;54.312;13.092;2022-11-15T10:01:12;101708.00;;;10.00
12918;BMP180;6526;54.312;13.092;2022-11-15T10:03:41;101705.00;;;10.10
12918;BMP180;6526;54.312;13.092;2022-11-15T10:06:21;101720.00;;;10.20
12918;BMP180;6526;54.312;13.092;2022-11-15T10:11:37;101719.00;;;10.30
12918;BMP180;6526;54.312;13.092;2022-11-15T10:14:13;101721.00;;;10.20
12918;BMP180;6526;54.312;13.092;2022-11-15T10:20:13;101713.00;;;10.30
12918;BMP180;6526;54.312;13.092;2022-11-15T10:22:51;101711.00;;;10.40
12918;BMP180;6526;54.312;13.092;2022-11-15T10:25:24;101714.00;;;10.30
12918;BMP180;6526;54.312;13.092;2022-11-15T10:27:59;101704.00;;;10.30
12918;BMP180;6526;54.312;13.092;2022-11-15T10:30:38;101701.00;;;10.00
12918;BMP180;6526;54.312;13.092;2022-11-15T10:33:37;101695.00;;;9.90
12918;BMP180;6526;54.312;13.092;2022-11-15T10:38:51;101685.00;;;10.10
12918;BMP180;6526;54.312;13.092;2022-11-15T10:41:32;101696.00;;;10.00
12918;BMP180;6526;54.312;13.092;2022-11-15T10:46:35;101698.00;;;10.00
12918;BMP180;6526;54.312;13.092;2022-11-15T10:49:14;101690.00;;;10.10
12918;BMP180;6526;54.312;13.092;2022-11-15T10:52:12;101693.00;;;10.20
12918;BMP180;6526;54.312;13.092;2022-11-15T10:55:03;101696.00;;;10.30
12918;BMP180;6526;54.312;13.092;2022-11-15T10:57:36;101692.00;;;10.60
12918;BMP180;6526;54.312;13.092;2022-11-15T11:02:59;101679.00;;;10.40
12918;BMP180;6526;54.312;13.092;2022-11-15T11:05:34;101677.00;;;10.10
12918;BMP180;6526;54.312;13.092;2022-11-15T11:08:20;101687.00;;;9.90
12918;BMP180;6526;54.312;13.092;2022-11-15T11:10:58;101669.00;;;9.90
12918;BMP180;6526;54.312;13.092;2022-11-15T11:13:26;101669.00;;;9.90
12918;BMP180;6526;54.312;13.092;2022-11-15T11:18:28;101665.00;;;10.10
12918;BMP180;6526;54.312;13.092;2022-11-15T11:21:08;101674.00;;;10.20
12918;BMP180;6526;54.312;13.092;2022-11-15T11:23:45;101673.00;;;10.30
12918;BMP180;6526;54.312;13.092;2022-11-15T11:37:29;101668.00;;;9.90
12918;BMP180;6526;54.312;13.092;2022-11-15T11:40:20;101682.00;;;10.00
12918;BMP180;6526;54.312;13.092;2022-11-15T11:42:53;101676.00;;;10.00
12918;BMP180;6526;54.312;13.092;2022-11-15T11:48:18;101670.00;;;9.90
12918;BMP180;6526;54.312;13.092;2022-11-15T11:50:47;101661.00;;;10.00
12918;BMP180;6526;54.312;13.092;2022-11-15T11:56:24;101669.00;;;10.10
12918;BMP180;6526;54.312;13.092;2022-11-15T11:58:53;101657.00;;;10.10
12918;BMP180;6526;54.312;13.092;2022-11-15T12:01:52;101666.00;;;10.00
12918;BMP180;6526;54.312;13.092;2022-11-15T12:04:27;101660.00;;;10.00
12918;BMP180;6526;54.312;13.092;2022-11-15T12:07:23;101659.00;;;10.30
12918;BMP180;6526;54.312;13.092;2022-11-15T12:10:23;101654.00;;;10.30
12918;BMP180;6526;54.312;13.092;2022-11-15T12:13:10;101663.00;;;10.20
12918;BMP180;6526;54.312;13.092;2022-11-15T12:15:45;101665.00;;;10.30
12918;BMP180;6526;54.312;13.092;2022-11-15T12:18:15;101660.00;;;10.50
12918;BMP180;6526;54.312;13.092;2022-11-15T12:20:51;101662.00;;;10.40
12918;BMP180;6526;54.312;13.092;2022-11-15T12:23:24;101656.00;;;10.40
12918;BMP180;6526;54.312;13.092;2022-11-15T12:25:55;101654.00;;;10.40
12918;BMP180;6526;54.312;13.092;2022-11-15T12:28:34;101656.00;;;10.40
12918;BMP180;6526;54.312;13.092;2022-11-15T12:31:18;101647.00;;;10.30
12918;BMP180;6526;54.312;13.092;2022-11-15T12:33:47;101657.00;;;10.40
12918;BMP180;6526;54.312;13.092;2022-11-15T12:38:59;101670.00;;;10.30
12918;BMP180;6526;54.312;13.092;2022-11-15T12:41:30;101658.00;;;10.30
12918;BMP180;6526;54.312;13.092;2022-11-15T12:43:58;101663.00;;;10.30
12918;BMP180;6526;54.312;13.092;2022-11-15T12:48:58;101670.00;;;10.50
12918;BMP180;6526;54.312;13.092;2022-11-15T12:59:52;101646.00;;;10.50
12918;BMP180;6526;54.312;13.092;2022-11-15T13:02:23;101640.00;;;10.50
12918;BMP180;6526;54.312;13.092;2022-11-15T13:04:51;101630.00;;;10.40
12918;BMP180;6526;54.312;13.092;2022-11-15T13:15:33;101621.00;;;10.60
12918;BMP180;6526;54.312;13.092;2022-11-15T13:18:18;101630.00;;;10.60
12918;BMP180;6526;54.312;13.092;2022-11-15T13:20:45;101636.00;;;10.80
12918;BMP180;6526;54.312;13.092;2022-11-15T13:23:13;101633.00;;;11.10
12918;BMP180;6526;54.312;13.092;2022-11-15T13:26:06;101622.00;;;10.90
12918;BMP180;6526;54.312;13.092;2022-11-15T13:28:38;101630.00;;;10.80
12918;BMP180;6526;54.312;13.092;2022-11-15T13:31:46;101628.00;;;10.80
12918;BMP180;6526;54.312;13.092;2022-11-15T13:34:25;101634.00;;;10.90
12918;BMP180;6526;54.312;13.092;2022-11-15T13:36:51;101616.00;;;11.00
12918;BMP180;6526;54.312;13.092;2022-11-15T13:39:27;101631.00;;;10.90
12918;BMP180;6526;54.312;13.092;2022-11-15T13:41:54;101636.00;;;10.90
12918;BMP180;6526;54.312;13.092;2022-11-15T13:44:31;101626.00;;;11.00
12918;BMP180;6526;54.312;13.092;2022-11-15T13:49:33;101625.00;;;11.00
12918;BMP180;6526;54.312;13.092;2022-11-15T13:52:02;101630.00;;;11.00
12918;BMP180;6526;54.312;13.092;2022-11-15T13:54:33;101630.00;;;11.20
12918;BMP180;6526;54.312;13.092;2022-11-15T13:57:10;101631.00;;;11.10
12918;BMP180;6526;54.312;13.092;2022-11-15T14:02:20;101631.00;;;11.10
12918;BMP180;6526;54.312;13.092;2022-11-15T14:04:53;101635.00;;;11.10
12918;BMP180;6526;54.312;13.092;2022-11-15T14:07:23;101635.00;;;11.00
12918;BMP180;6526;54.312;13.092;2022-11-15T14:09:50;101625.00;;;11.10
12918;BMP180;6526;54.312;13.092;2022-11-15T14:12:34;101632.00;;;11.10
12918;BMP180;6526;54.312;13.092;2022-11-15T14:15:19;101639.00;;;11.30
12918;BMP180;6526;54.312;13.092;2022-11-15T14:17:47;101640.00;;;11.30
12918;BMP180;6526;54.312;13.092;2022-11-15T14:22:57;101638.00;;;11.20
12918;BMP180;6526;54.312;13.092;2022-11-15T14:25:33;101622.00;;;11.10
12918;BMP180;6526;54.312;13.092;2022-11-15T14:28:14;101622.00;;;11.10
12918;BMP180;6526;54.312;13.092;2022-11-15T14:30:42;101619.00;;;11.00
12918;BMP180;6526;54.312;13.092;2022-11-15T14:33:29;101595.00;;;11.10
12918;BMP180;6526;54.312;13.092;2022-11-15T14:35:57;101631.00;;;11.10
12918;BMP180;6526;54.312;13.092;2022-11-15T14:38:24;101624.00;;;11.10
12918;BMP180;6526;54.312;13.092;2022-11-15T14:40:51;101618.00;;;11.10
12918;BMP180;6526;54.312;13.092;2022-11-15T14:43:17;101613.00;;;11.10
12918;BMP180;6526;54.312;13.092;2022-11-15T14:45:43;101615.00;;;11.20
12918;BMP180;6526;54.312;13.092;2022-11-15T14:48:09;101606.00;;;11.10
12918;BMP180;6526;54.312;13.092;2022-11-15T14:50:36;101617.00;;;11.10
12918;BMP180;6526;54.312;13.092;2022-11-15T14:53:03;101604.00;;;11.10
12918;BMP180;6526;54.312;13.092;2022-11-15T14:55:31;101594.00;;;11.20
12918;BMP180;6526;54.312;13.092;2022-11-15T14:58:00;101600.00;;;11.20
12918;BMP180;6526;54.312;13.092;2022-11-15T15:00:28;101597.00;;;11.20
12918;BMP180;6526;54.312;13.092;2022-11-15T15:02:55;101604.00;;;11.10
12918;BMP180;6526;54.312;13.092;2022-11-15T15:05:29;101585.00;;;11.10
12918;BMP180;6526;54.312;13.092;2022-11-15T15:07:56;101581.00;;;11.00
12918;BMP180;6526;54.312;13.092;2022-11-15T15:10:22;101596.00;;;11.20
12918;BMP180;6526;54.312;13.092;2022-11-15T15:12:49;101584.00;;;11.20
12918;BMP180;6526;54.312;13.092;2022-11-15T15:15:22;101596.00;;;11.10
12918;BMP180;6526;54.312;13.092;2022-11-15T15:17:49;101586.00;;;11.20
12918;BMP180;6526;54.312;13.092;2022-11-15T15:20:15;101582.00;;;11.10
12918;BMP180;6526;54.312;13.092;2022-11-15T15:22:41;101580.00;;;11.20
12918;BMP180;6526;54.312;13.092;2022-11-15T15:25:29;101581.00;;;11.10
12918;BMP180;6526;54.312;13.092;2022-11-15T15:27:56;101580.00;;;11.10
12918;BMP180;6526;54.312;13.092;2022-11-15T15:30:23;101585.00;;;11.10
12918;BMP180;6526;54.312;13.092;2022-11-15T15:32:49;101582.00;;;11.10
12918;BMP180;6526;54.312;13.092;2022-11-15T15:35:16;101595.00;;;11.20
12918;BMP180;6526;54.312;13.092;2022-11-15T15:37:44;101583.00;;;11.10
12918;BMP180;6526;54.312;13.092;2022-11-15T15:40:19;101583.00;;;11.20
12918;BMP180;6526;54.312;13.092;2022-11-15T15:42:46;101583.00;;;11.10
12918;BMP180;6526;54.312;13.092;2022-11-15T15:45:13;101582.00;;;11.10
12918;BMP180;6526;54.312;13.092;2022-11-15T15:47:40;101571.00;;;11.00
12918;BMP180;6526;54.312;13.092;2022-11-15T15:50:28;101576.00;;;11.00
12918;BMP180;6526;54.312;13.092;2022-11-15T15:52:57;101575.00;;;11.10
12918;BMP180;6526;54.312;13.092;2022-11-15T15:55:24;101576.00;;;11.10
12918;BMP180;6526;54.312;13.092;2022-11-15T15:57:50;101584.00;;;11.10